sensor_id;sensor_type;location;lat;lon;timestamp;pressure;altitude;pressure_sealevel;temperature;humidity
13767;BME280;47980;48.794;9.176;2023-05-12T00:01:14;97959.78;;;12.82;100.00
13767;BME280;47980;48.794;9.176;2023-05-12T00:03:46;97957.72;;;12.75;100.00
13767;BME280;47980;48.794;9.176;2023-05-12T00:06:18;97947.06;;;12.91;100.00
13767;BME280;47980;48.794;9.176;2023-05-12T00:08:49;97953.16;;;12.92;100.00
13767;BME280;47980;48.794;9.176;2023-05-12T00:11:22;97950.75;;;12.71;100.00
13767;BME280;47980;48.794;9.176;2023-05-12T00:13:54;97943.81;;;12.82;100.00
13767;BME280;47980;48.794;9.176;2023-05-12T00:16:25;97937.09;;;12.88;100.00
13767;BME280;47980;48.794;9.176;2023-05-12T00:18:57;97940.88;;;12.87;100.00
13767;BME280;47980;48.794;9.176;2023-05-12T00:21:29;97939.44;;;12.90;100.00
13767;BME280;47980;48.794;9.176;2023-05-12T00:24:00;97939.34;;;12.86;100.00
13767;BME280;47980;48.794;9.176;2023-05-12T00:26:33;97937.00;;;12.85;100.00
13767;BME280;47980;48.794;9.176;2023-05-12T00:29:04;97940.13;;;12.71;100.00
13767;BME280;47980;48.794;9.176;2023-05-12T00:31:36;97932.44;;;12.69;100.00
13767;BME280;47980;48.794;9.176;2023-05-12T00:34:08;97937.88;;;12.73;100.00
13767;BME280;47980;48.794;9.176;2023-05-12T00:36:39;97937.44;;;12.71;100.00
13767;BME280;47980;48.794;9.176;2023-05-12T00:39:10;97937.28;;;12.64;100.00
13767;BME280;47980;48.794;9.176;2023-05-12T00:41:43;97937.59;;;12.78;100.00
13767;BME280;47980;48.794;9.176;2023-05-12T00:44:17;97938.81;;;12.81;100.00
13767;BME280;47980;48.794;9.176;2023-05-12T00:46:49;97941.88;;;12.67;100.00
13767;BME280;47980;48.794;9.176;2023-05-12T00:49:21;97936.50;;;12.79;100.00
13767;BME280;47980;48.794;9.176;2023-05-12T00:51:53;97941.56;;;12.84;100.00
13767;BME280;47980;48.794;9.176;2023-05-12T00:54:25;97940.03;;;12.67;100.00
13767;BME280;47980;48.794;9.176;2023-05-12T00:56:58;97939.94;;;12.64;100.00
13767;BME280;47980;48.794;9.176;2023-05-12T00:59:31;97931.31;;;12.70;100.00
13767;BME280;47980;48.794;9.176;2023-05-12T01:02:03;97926.94;;;12.62;100.00
13767;BME280;47980;48.794;9.176;2023-05-12T01:04:36;97935.88;;;12.54;100.00
13767;BME280;47980;48.794;9.176;2023-05-12T01:07:12;97928.47;;;12.63;100.00
13767;BME280;47980;48.794;9.176;2023-05-12T01:09:46;97929.97;;;12.76;100.00
13767;BME280;47980;48.794;9.176;2023-05-12T01:12:19;97935.19;;;12.89;100.00
13767;BME280;47980;48.794;9.176;2023-05-12T01:14:52;97937.78;;;12.85;100.00
13767;BME280;47980;48.794;9.176;2023-05-12T01:17:27;97936.50;;;12.79;100.00
13767;BME280;47980;48.794;9.176;2023-05-12T01:20:01;97933.41;;;12.77;100.00
13767;BME280;47980;48.794;9.176;2023-05-12T01:22:34;97931.19;;;12.79;100.00
13767;BME280;47980;48.794;9.176;2023-05-12T01:25:09;97931.94;;;12.64;100.00
13767;BME280;47980;48.794;9.176;2023-05-12T01:27:43;97938.31;;;12.75;100.00
13767;BME280;47980;48.794;9.176;2023-05-12T01:30:16;97935.81;;;12.82;100.00
13767;BME280;47980;48.794;9.176;2023-05-12T01:32:49;97929.38;;;12.83;100.00
13767;BME280;47980;48.794;9.176;2023-05-12T01:35:21;97930.66;;;12.73;100.00
13767;BME280;47980;48.794;9.176;2023-05-12T01:37:52;97929.69;;;12.66;100.00
13767;BME280;47980;48.794;9.176;2023-05-12T01:40:24;97927.44;;;12.52;100.00
13767;BME280;47980;48.794;9.176;2023-05-12T01:42:57;97932.28;;;12.62;100.00
13767;BME280;47980;48.794;9.176;2023-05-12T01:45:28;97926.59;;;12.48;100.00
13767;BME280;47980;48.794;9.176;2023-05-12T01:48:00;97931.13;;;12.47;100.00
13767;BME280;47980;48.794;9.176;2023-05-12T01:50:31;97929.97;;;12.61;100.00
13767;BME280;47980;48.794;9.176;2023-05-12T01:53:03;97933.56;;;12.68;100.00
13767;BME280;47980;48.794;9.176;2023-05-12T01:55:34;97927.47;;;12.68;100.00
13767;BME280;47980;48.794;9.176;2023-05-12T01:58:07;97931.84;;;12.76;100.00
13767;BME280;47980;48.794;9.176;2023-05-12T02:00:39;97930.19;;;12.56;100.00
13767;BME280;47980;48.794;9.176;2023-05-12T02:03:10;97930.00;;;12.48;100.00
13767;BME280;47980;48.794;9.176;2023-05-12T02:05:42;97931.22;;;12.51;100.00
13767;BME280;47980;48.794;9.176;2023-05-12T02:08:13;97926.00;;;12.55;100.00
13767;BME280;47980;48.794;9.176;2023-05-12T02:10:45;97927.78;;;12.50;100.00
13767;BME280;47980;48.794;9.176;2023-05-12T02:13:18;97929.25;;;12.48;100.00
13767;BME280;47980;48.794;9.176;2023-05-12T02:15:49;97924.69;;;12.48;100.00
13767;BME280;47980;48.794;9.176;2023-05-12T02:18:21;97932.16;;;12.43;100.00
13767;BME280;47980;48.794;9.176;2023-05-12T02:20:52;97928.81;;;12.46;100.00
13767;BME280;47980;48.794;9.176;2023-05-12T02:23:24;97926.75;;;12.39;100.00
13767;BME280;47980;48.794;9.176;2023-05-12T02:25:55;97928.81;;;12.46;100.00
13767;BME280;47980;48.794;9.176;2023-05-12T02:28:28;97924.56;;;12.57;100.00
13767;BME280;47980;48.794;9.176;2023-05-12T02:31:00;97922.91;;;12.52;100.00
13767;BME280;47980;48.794;9.176;2023-05-12T02:33:31;97932.16;;;12.43;100.00
13767;BME280;47980;48.794;9.176;2023-05-12T02:36:03;97926.13;;;12.30;100.00
13767;BME280;47980;48.794;9.176;2023-05-12T02:38:35;97924.66;;;12.33;100.00
13767;BME280;47980;48.794;9.176;2023-05-12T02:41:06;97916.28;;;12.46;100.00
13767;BME280;47980;48.794;9.176;2023-05-12T02:43:39;97921.63;;;12.46;100.00
13767;BME280;47980;48.794;9.176;2023-05-12T02:46:11;97918.28;;;12.21;100.00
13767;BME280;47980;48.794;9.176;2023-05-12T02:48:42;97926.88;;;12.31;100.00
13767;BME280;47980;48.794;9.176;2023-05-12T02:51:14;97924.84;;;12.24;100.00
13767;BME280;47980;48.794;9.176;2023-05-12T02:53:45;97922.84;;;12.21;100.00
13767;BME280;47980;48.794;9.176;2023-05-12T02:56:17;97920.31;;;12.12;100.00
13767;BME280;47980;48.794;9.176;2023-05-12T02:58:50;97919.91;;;12.10;100.00
13767;BME280;47980;48.794;9.176;2023-05-12T03:01:22;97918.16;;;12.02;100.00
13767;BME280;47980;48.794;9.176;2023-05-12T03:03:54;97924.16;;;11.99;100.00
13767;BME280;47980;48.794;9.176;2023-05-12T03:06:25;97923.91;;;12.04;100.00
13767;BME280;47980;48.794;9.176;2023-05-12T03:08:57;97923.13;;;12.03;100.00
13767;BME280;47980;48.794;9.176;2023-05-12T03:11:29;97927.00;;;12.06;100.00
13767;BME280;47980;48.794;9.176;2023-05-12T03:14:02;97927.31;;;12.17;100.00
13767;BME280;47980;48.794;9.176;2023-05-12T03:16:33;97934.81;;;12.43;100.00
13767;BME280;47980;48.794;9.176;2023-05-12T03:19:05;97935.59;;;12.43;100.00
13767;BME280;47980;48.794;9.176;2023-05-12T03:21:36;97923.03;;;12.28;100.00
13767;BME280;47980;48.794;9.176;2023-05-12T03:24:08;97929.84;;;12.13;100.00
13767;BME280;47980;48.794;9.176;2023-05-12T03:26:40;97932.00;;;12.23;100.00
13767;BME280;47980;48.794;9.176;2023-05-12T03:29:12;97925.88;;;12.07;100.00
13767;BME280;47980;48.794;9.176;2023-05-12T03:31:44;97928.47;;;12.19;100.00
13767;BME280;47980;48.794;9.176;2023-05-12T03:34:16;97926.34;;;12.09;100.00
13767;BME280;47980;48.794;9.176;2023-05-12T03:36:47;97934.00;;;12.26;100.00
13767;BME280;47980;48.794;9.176;2023-05-12T03:39:19;97933.19;;;12.10;100.00
13767;BME280;47980;48.794;9.176;2023-05-12T03:41:52;97935.78;;;12.22;100.00
13767;BME280;47980;48.794;9.176;2023-05-12T03:44:25;97925.44;;;12.05;100.00
13767;BME280;47980;48.794;9.176;2023-05-12T03:46:57;97924.56;;;12.01;100.00
13767;BME280;47980;48.794;9.176;2023-05-12T03:49:28;97928.44;;;12.03;100.00
13767;BME280;47980;48.794;9.176;2023-05-12T03:51:59;97921.69;;;12.06;100.00
13767;BME280;47980;48.794;9.176;2023-05-12T03:54:31;97922.84;;;12.21;100.00
13767;BME280;47980;48.794;9.176;2023-05-12T03:57:03;97929.34;;;12.23;100.00
13767;BME280;47980;48.794;9.176;2023-05-12T03:59:36;97920.56;;;12.07;100.00
13767;BME280;47980;48.794;9.176;2023-05-12T04:02:07;97916.22;;;12.15;100.00
13767;BME280;47980;48.794;9.176;2023-05-12T04:04:40;97918.88;;;12.15;100.00
13767;BME280;47980;48.794;9.176;2023-05-12T04:07:12;97911.34;;;11.76;100.00
13767;BME280;47980;48.794;9.176;2023-05-12T04:09:43;97914.31;;;11.87;100.00
13767;BME280;47980;48.794;9.176;2023-05-12T04:12:15;97909.94;;;12.07;100.00
13767;BME280;47980;48.794;9.176;2023-05-12T04:14:48;97921.19;;;11.88;100.00
13767;BME280;47980;48.794;9.176;2023-05-12T04:17:20;97911.78;;;11.78;100.00
13767;BME280;47980;48.794;9.176;2023-05-12T04:19:52;97912.44;;;11.75;100.00
13767;BME280;47980;48.794;9.176;2023-05-12T04:22:23;97924.56;;;12.01;100.00
13767;BME280;47980;48.794;9.176;2023-05-12T04:24:55;97934.16;;;12.18;100.00
13767;BME280;47980;48.794;9.176;2023-05-12T04:27:26;97923.22;;;12.07;100.00
13767;BME280;47980;48.794;9.176;2023-05-12T04:29:59;97926.34;;;11.97;100.00
13767;BME280;47980;48.794;9.176;2023-05-12T04:32:31;97929.31;;;12.08;100.00
13767;BME280;47980;48.794;9.176;2023-05-12T04:35:02;97929.88;;;12.01;100.00
13767;BME280;47980;48.794;9.176;2023-05-12T04:37:34;97931.81;;;12.16;100.00
13767;BME280;47980;48.794;9.176;2023-05-12T04:40:07;97934.25;;;12.21;100.00
13767;BME280;47980;48.794;9.176;2023-05-12T04:42:38;97932.22;;;12.02;100.00
13767;BME280;47980;48.794;9.176;2023-05-12T04:45:11;97937.97;;;12.04;100.00
13767;BME280;47980;48.794;9.176;2023-05-12T04:47:43;97934.31;;;12.09;100.00
13767;BME280;47980;48.794;9.176;2023-05-12T04:50:14;97944.88;;;12.21;100.00
13767;BME280;47980;48.794;9.176;2023-05-12T04:52:46;97945.13;;;12.44;100.00
13767;BME280;47980;48.794;9.176;2023-05-12T04:55:17;97951.19;;;12.45;100.00
13767;BME280;47980;48.794;9.176;2023-05-12T04:57:49;97953.91;;;12.61;100.00
13767;BME280;47980;48.794;9.176;2023-05-12T05:00:22;97948.72;;;12.52;100.00
13767;BME280;47980;48.794;9.176;2023-05-12T05:02:53;97958.00;;;12.42;100.00
13767;BME280;47980;48.794;9.176;2023-05-12T05:05:25;97951.00;;;12.38;100.00
13767;BME280;47980;48.794;9.176;2023-05-12T05:07:56;97954.75;;;12.21;100.00
13767;BME280;47980;48.794;9.176;2023-05-12T05:10:28;97949.53;;;12.24;100.00
13767;BME280;47980;48.794;9.176;2023-05-12T05:12:59;97958.56;;;12.64;100.00
13767;BME280;47980;48.794;9.176;2023-05-12T05:15:32;97954.63;;;12.45;100.00
13767;BME280;47980;48.794;9.176;2023-05-12T05:18:04;97948.34;;;12.38;100.00
13767;BME280;47980;48.794;9.176;2023-05-12T05:20:35;97956.78;;;12.40;100.00
13767;BME280;47980;48.794;9.176;2023-05-12T05:23:07;97956.94;;;12.31;100.00
13767;BME280;47980;48.794;9.176;2023-05-12T05:25:38;97959.25;;;12.33;100.00
13767;BME280;47980;48.794;9.176;2023-05-12T05:28:10;97959.78;;;12.38;100.00
13767;BME280;47980;48.794;9.176;2023-05-12T05:30:43;97960.00;;;12.61;100.00
13767;BME280;47980;48.794;9.176;2023-05-12T05:33:14;97960.59;;;12.70;100.00
13767;BME280;47980;48.794;9.176;2023-05-12T05:35:46;97968.72;;;12.90;100.00
13767;BME280;47980;48.794;9.176;2023-05-12T05:38:18;97967.94;;;12.89;100.00
13767;BME280;47980;48.794;9.176;2023-05-12T05:40:49;97973.31;;;12.77;100.00
13767;BME280;47980;48.794;9.176;2023-05-12T05:43:21;97963.47;;;13.09;100.00
13767;BME280;47980;48.794;9.176;2023-05-12T05:45:54;97973.53;;;13.00;100.00
13767;BME280;47980;48.794;9.176;2023-05-12T05:48:27;97968.28;;;12.88;100.00
13767;BME280;47980;48.794;9.176;2023-05-12T05:50:58;97975.66;;;12.94;100.00
13767;BME280;47980;48.794;9.176;2023-05-12T05:53:30;97967.25;;;13.08;100.00
13767;BME280;47980;48.794;9.176;2023-05-12T05:56:01;97971.81;;;13.08;100.00
13767;BME280;47980;48.794;9.176;2023-05-12T05:58:33;97975.03;;;13.29;100.00
13767;BME280;47980;48.794;9.176;2023-05-12T06:01:06;97969.06;;;13.20;100.00
13767;BME280;47980;48.794;9.176;2023-05-12T06:03:37;97976.81;;;13.41;99.95
13767;BME280;47980;48.794;9.176;2023-05-12T06:06:09;97973.38;;;13.40;99.82
13767;BME280;47980;48.794;9.176;2023-05-12T06:08:40;97974.63;;;12.99;100.00
13767;BME280;47980;48.794;9.176;2023-05-12T06:11:11;97983.06;;;13.48;98.96
13767;BME280;47980;48.794;9.176;2023-05-12T06:13:43;97980.66;;;13.43;97.80
13767;BME280;47980;48.794;9.176;2023-05-12T06:16:16;97980.28;;;13.77;94.87
13767;BME280;47980;48.794;9.176;2023-05-12T06:18:47;97982.22;;;13.29;97.61
13767;BME280;47980;48.794;9.176;2023-05-12T06:21:20;97986.88;;;13.47;97.05
13767;BME280;47980;48.794;9.176;2023-05-12T06:23:51;97987.00;;;13.70;95.73
13767;BME280;47980;48.794;9.176;2023-05-12T06:26:25;97983.81;;;13.65;95.71
13767;BME280;47980;48.794;9.176;2023-05-12T06:28:57;97995.41;;;13.72;96.07
13767;BME280;47980;48.794;9.176;2023-05-12T06:31:29;97989.13;;;13.65;95.91
13767;BME280;47980;48.794;9.176;2023-05-12T06:34:01;97985.47;;;13.89;96.02
13767;BME280;47980;48.794;9.176;2023-05-12T06:36:33;97986.22;;;14.05;94.33
13767;BME280;47980;48.794;9.176;2023-05-12T06:39:04;97993.94;;;13.75;94.87
13767;BME280;47980;48.794;9.176;2023-05-12T06:41:36;97991.19;;;14.07;93.81
13767;BME280;47980;48.794;9.176;2023-05-12T06:44:08;97985.78;;;14.03;93.39
13767;BME280;47980;48.794;9.176;2023-05-12T06:46:43;97982.78;;;14.24;91.26
13767;BME280;47980;48.794;9.176;2023-05-12T06:49:14;97991.75;;;14.55;89.47
13767;BME280;47980;48.794;9.176;2023-05-12T06:51:46;97993.72;;;14.00;93.22
13767;BME280;47980;48.794;9.176;2023-05-12T06:54:17;97992.59;;;14.39;89.82
13767;BME280;47980;48.794;9.176;2023-05-12T06:56:49;97996.53;;;14.07;92.05
13767;BME280;47980;48.794;9.176;2023-05-12T06:59:20;97990.91;;;14.12;92.74
13767;BME280;47980;48.794;9.176;2023-05-12T07:01:53;97990.50;;;14.29;91.01
13767;BME280;47980;48.794;9.176;2023-05-12T07:04:25;97998.91;;;14.70;90.17
13767;BME280;47980;48.794;9.176;2023-05-12T07:06:57;97990.50;;;14.68;87.62
13767;BME280;47980;48.794;9.176;2023-05-12T07:09:28;97997.78;;;14.32;86.68
13767;BME280;47980;48.794;9.176;2023-05-12T07:12:00;97992.34;;;14.64;85.09
13767;BME280;47980;48.794;9.176;2023-05-12T07:14:31;97992.66;;;14.62;85.53
13767;BME280;47980;48.794;9.176;2023-05-12T07:17:04;97999.28;;;14.91;81.47
13767;BME280;47980;48.794;9.176;2023-05-12T07:19:36;97999.25;;;15.34;81.41
13767;BME280;47980;48.794;9.176;2023-05-12T07:22:09;97991.94;;;15.57;79.75
13767;BME280;47980;48.794;9.176;2023-05-12T07:24:40;97996.63;;;15.87;77.90
13767;BME280;47980;48.794;9.176;2023-05-12T07:27:12;97993.63;;;15.66;78.86
13767;BME280;47980;48.794;9.176;2023-05-12T07:29:44;97987.69;;;15.79;75.88
13767;BME280;47980;48.794;9.176;2023-05-12T07:32:17;97990.94;;;15.92;74.17
13767;BME280;47980;48.794;9.176;2023-05-12T07:34:48;97992.22;;;15.49;77.10
13767;BME280;47980;48.794;9.176;2023-05-12T07:37:19;97993.78;;;15.53;76.91
13767;BME280;47980;48.794;9.176;2023-05-12T07:39:51;97987.50;;;15.65;77.01
13767;BME280;47980;48.794;9.176;2023-05-12T07:42:22;97992.66;;;15.77;77.76
13767;BME280;47980;48.794;9.176;2023-05-12T07:44:54;97992.34;;;16.12;76.65
13767;BME280;47980;48.794;9.176;2023-05-12T07:47:27;97984.81;;;15.65;78.72
13767;BME280;47980;48.794;9.176;2023-05-12T07:49:58;97985.31;;;16.01;78.18
13767;BME280;47980;48.794;9.176;2023-05-12T07:52:30;97980.81;;;16.08;75.81
13767;BME280;47980;48.794;9.176;2023-05-12T07:55:01;97983.94;;;16.14;77.71
13767;BME280;47980;48.794;9.176;2023-05-12T07:57:33;97983.56;;;16.16;72.18
13767;BME280;47980;48.794;9.176;2023-05-12T08:00:05;97986.00;;;15.94;76.82
13767;BME280;47980;48.794;9.176;2023-05-12T08:02:40;97991.03;;;15.99;77.12
13767;BME280;47980;48.794;9.176;2023-05-12T08:05:11;97990.88;;;15.62;79.13
13767;BME280;47980;48.794;9.176;2023-05-12T08:07:43;97992.75;;;15.35;79.67
13767;BME280;47980;48.794;9.176;2023-05-12T08:10:15;97988.22;;;15.62;75.24
13767;BME280;47980;48.794;9.176;2023-05-12T08:12:48;97984.53;;;16.00;75.67
13767;BME280;47980;48.794;9.176;2023-05-12T08:15:19;97995.63;;;16.32;73.52
13767;BME280;47980;48.794;9.176;2023-05-12T08:17:52;97991.28;;;16.88;72.45
13767;BME280;47980;48.794;9.176;2023-05-12T08:20:24;97986.94;;;17.17;72.06
13767;BME280;47980;48.794;9.176;2023-05-12T08:22:55;97980.66;;;16.61;72.35
13767;BME280;47980;48.794;9.176;2023-05-12T08:25:27;97990.75;;;17.68;68.37
13767;BME280;47980;48.794;9.176;2023-05-12T08:27:59;97984.38;;;17.35;72.26
13767;BME280;47980;48.794;9.176;2023-05-12T08:30:31;97984.25;;;17.69;66.64
13767;BME280;47980;48.794;9.176;2023-05-12T08:33:03;97979.13;;;16.98;67.89
13767;BME280;47980;48.794;9.176;2023-05-12T08:35:35;97988.44;;;17.11;68.48
13767;BME280;47980;48.794;9.176;2023-05-12T08:38:07;97989.81;;;17.42;66.47
13767;BME280;47980;48.794;9.176;2023-05-12T08:40:45;97989.34;;;17.81;64.62
13767;BME280;47980;48.794;9.176;2023-05-12T08:43:23;97994.19;;;17.61;65.43
13767;BME280;47980;48.794;9.176;2023-05-12T08:45:55;97993.19;;;16.88;68.84
13767;BME280;47980;48.794;9.176;2023-05-12T08:48:30;97991.78;;;17.01;67.42
13767;BME280;47980;48.794;9.176;2023-05-12T08:51:05;97993.38;;;17.09;69.25
13767;BME280;47980;48.794;9.176;2023-05-12T08:53:40;97988.56;;;17.29;68.23
13767;BME280;47980;48.794;9.176;2023-05-12T08:56:13;97996.09;;;17.13;67.82
13767;BME280;47980;48.794;9.176;2023-05-12T08:58:46;97991.06;;;17.55;67.15
13767;BME280;47980;48.794;9.176;2023-05-12T09:01:17;97996.63;;;17.29;66.54
13767;BME280;47980;48.794;9.176;2023-05-12T09:03:51;97996.78;;;17.50;65.03
13767;BME280;47980;48.794;9.176;2023-05-12T09:06:23;97997.59;;;17.10;68.10
13767;BME280;47980;48.794;9.176;2023-05-12T09:08:54;97986.69;;;16.85;67.84
13767;BME280;47980;48.794;9.176;2023-05-12T09:11:26;97988.72;;;17.47;65.11
13767;BME280;47980;48.794;9.176;2023-05-12T09:13:59;97993.50;;;17.23;66.77
13767;BME280;47980;48.794;9.176;2023-05-12T09:16:35;97988.53;;;17.77;63.84
13767;BME280;47980;48.794;9.176;2023-05-12T09:19:09;97992.28;;;17.17;65.39
13767;BME280;47980;48.794;9.176;2023-05-12T09:21:40;97993.16;;;17.76;64.30
13767;BME280;47980;48.794;9.176;2023-05-12T09:24:12;97993.78;;;17.63;66.21
13767;BME280;47980;48.794;9.176;2023-05-12T09:26:45;97999.72;;;17.35;65.95
13767;BME280;47980;48.794;9.176;2023-05-12T09:29:18;97993.53;;;17.27;66.52
13767;BME280;47980;48.794;9.176;2023-05-12T09:31:50;98001.50;;;17.20;65.47
13767;BME280;47980;48.794;9.176;2023-05-12T09:34:27;97992.00;;;16.81;68.55
13767;BME280;47980;48.794;9.176;2023-05-12T09:37:02;97994.16;;;16.72;67.66
13767;BME280;47980;48.794;9.176;2023-05-12T09:39:35;97986.19;;;16.42;69.58
13767;BME280;47980;48.794;9.176;2023-05-12T09:42:09;97988.81;;;16.72;68.64
13767;BME280;47980;48.794;9.176;2023-05-12T09:44:42;97992.94;;;16.66;69.39
13767;BME280;47980;48.794;9.176;2023-05-12T09:47:13;97994.84;;;16.66;70.10
13767;BME280;47980;48.794;9.176;2023-05-12T09:49:50;97989.41;;;16.92;69.87
13767;BME280;47980;48.794;9.176;2023-05-12T09:52:22;97989.00;;;16.90;69.00
13767;BME280;47980;48.794;9.176;2023-05-12T09:54:54;97984.66;;;17.19;67.96
13767;BME280;47980;48.794;9.176;2023-05-12T09:57:26;97989.34;;;17.85;68.97
13767;BME280;47980;48.794;9.176;2023-05-12T09:59:59;97991.09;;;17.63;67.24
13767;BME280;47980;48.794;9.176;2023-05-12T10:02:31;97991.34;;;17.98;66.11
13767;BME280;47980;48.794;9.176;2023-05-12T10:05:09;97996.63;;;17.84;66.15
13767;BME280;47980;48.794;9.176;2023-05-12T10:07:43;97994.69;;;17.26;66.43
13767;BME280;47980;48.794;9.176;2023-05-12T10:10:17;98001.63;;;17.34;66.28
13767;BME280;47980;48.794;9.176;2023-05-12T10:12:49;97999.66;;;17.27;67.58
13767;BME280;47980;48.794;9.176;2023-05-12T10:15:22;97987.88;;;16.95;67.71
13767;BME280;47980;48.794;9.176;2023-05-12T10:17:55;97991.06;;;16.70;69.17
13767;BME280;47980;48.794;9.176;2023-05-12T10:20:30;97992.63;;;16.37;69.64
13767;BME280;47980;48.794;9.176;2023-05-12T10:23:03;97992.50;;;16.60;70.37
13767;BME280;47980;48.794;9.176;2023-05-12T10:25:35;97990.72;;;17.13;68.20
13767;BME280;47980;48.794;9.176;2023-05-12T10:28:07;97989.44;;;17.44;67.33
13767;BME280;47980;48.794;9.176;2023-05-12T10:30:40;97995.44;;;17.26;67.22
13767;BME280;47980;48.794;9.176;2023-05-12T10:33:12;97999.19;;;17.70;68.06
13767;BME280;47980;48.794;9.176;2023-05-12T10:35:47;97995.75;;;17.69;66.38
13767;BME280;47980;48.794;9.176;2023-05-12T10:38:18;97995.75;;;17.69;66.25
13767;BME280;47980;48.794;9.176;2023-05-12T10:40:51;97996.75;;;17.02;69.18
13767;BME280;47980;48.794;9.176;2023-05-12T10:43:24;97992.47;;;17.39;68.12
13767;BME280;47980;48.794;9.176;2023-05-12T10:46:07;97988.84;;;17.17;68.82
13767;BME280;47980;48.794;9.176;2023-05-12T10:48:50;97994.03;;;16.95;70.35
13767;BME280;47980;48.794;9.176;2023-05-12T10:51:24;97994.91;;;17.10;71.59
13767;BME280;47980;48.794;9.176;2023-05-12T10:53:58;97995.41;;;16.78;74.07
13767;BME280;47980;48.794;9.176;2023-05-12T10:56:41;97995.31;;;16.71;74.20
13767;BME280;47980;48.794;9.176;2023-05-12T10:59:14;98001.03;;;16.36;76.72
13767;BME280;47980;48.794;9.176;2023-05-12T11:01:58;97996.81;;;16.69;73.97
13767;BME280;47980;48.794;9.176;2023-05-12T11:04:39;98000.09;;;16.21;75.72
13767;BME280;47980;48.794;9.176;2023-05-12T11:07:13;97996.09;;;16.08;76.61
13767;BME280;47980;48.794;9.176;2023-05-12T11:09:46;98004.94;;;16.42;75.83
13767;BME280;47980;48.794;9.176;2023-05-12T11:12:18;97996.66;;;16.21;77.25
13767;BME280;47980;48.794;9.176;2023-05-12T11:14:49;98007.75;;;15.93;77.81
13767;BME280;47980;48.794;9.176;2023-05-12T11:17:21;98006.50;;;16.13;78.46
13767;BME280;47980;48.794;9.176;2023-05-12T11:19:52;98004.41;;;16.29;77.85
13767;BME280;47980;48.794;9.176;2023-05-12T11:22:25;98008.50;;;16.20;76.80
13767;BME280;47980;48.794;9.176;2023-05-12T11:24:57;98014.56;;;16.47;75.87
13767;BME280;47980;48.794;9.176;2023-05-12T11:27:28;98013.19;;;16.30;76.32
13767;BME280;47980;48.794;9.176;2023-05-12T11:30:01;98017.97;;;16.13;77.92
13767;BME280;47980;48.794;9.176;2023-05-12T11:32:33;98017.06;;;16.02;77.42
13767;BME280;47980;48.794;9.176;2023-05-12T11:35:09;98011.91;;;16.17;79.42
13767;BME280;47980;48.794;9.176;2023-05-12T11:37:44;98012.94;;;16.39;78.56
13767;BME280;47980;48.794;9.176;2023-05-12T11:40:16;98018.81;;;16.51;77.79
13767;BME280;47980;48.794;9.176;2023-05-12T11:42:49;98024.00;;;16.37;78.61
13767;BME280;47980;48.794;9.176;2023-05-12T11:45:25;98030.75;;;16.57;78.44
13767;BME280;47980;48.794;9.176;2023-05-12T11:48:07;98024.00;;;16.71;79.54
13767;BME280;47980;48.794;9.176;2023-05-12T11:50:42;98024.34;;;17.03;79.81
13767;BME280;47980;48.794;9.176;2023-05-12T11:53:17;98017.25;;;16.84;80.07
13767;BME280;47980;48.794;9.176;2023-05-12T11:55:50;98014.34;;;16.96;76.46
13767;BME280;47980;48.794;9.176;2023-05-12T11:58:23;98015.72;;;16.49;78.43
13767;BME280;47980;48.794;9.176;2023-05-12T12:00:56;98027.91;;;16.13;78.39
13767;BME280;47980;48.794;9.176;2023-05-12T12:03:44;98021.72;;;16.39;78.88
13767;BME280;47980;48.794;9.176;2023-05-12T12:06:17;98029.31;;;16.33;84.08
13767;BME280;47980;48.794;9.176;2023-05-12T12:08:51;98033.72;;;16.19;85.06
13767;BME280;47980;48.794;9.176;2023-05-12T12:11:24;98028.50;;;15.99;86.04
13767;BME280;47980;48.794;9.176;2023-05-12T12:13:57;98033.72;;;16.19;84.34
13767;BME280;47980;48.794;9.176;2023-05-12T12:16:30;98030.63;;;16.80;79.99
13767;BME280;47980;48.794;9.176;2023-05-12T12:19:02;98027.56;;;16.78;83.23
13767;BME280;47980;48.794;9.176;2023-05-12T12:21:33;98024.75;;;16.68;80.15
13767;BME280;47980;48.794;9.176;2023-05-12T12:24:07;98024.88;;;17.19;76.02
13767;BME280;47980;48.794;9.176;2023-05-12T12:26:38;98030.88;;;17.53;75.01
13767;BME280;47980;48.794;9.176;2023-05-12T12:29:10;98030.41;;;17.41;75.14
13767;BME280;47980;48.794;9.176;2023-05-12T12:31:41;98032.84;;;18.15;71.76
13767;BME280;47980;48.794;9.176;2023-05-12T12:34:13;98031.75;;;18.23;72.71
13767;BME280;47980;48.794;9.176;2023-05-12T12:36:44;98029.66;;;18.79;68.40
13767;BME280;47980;48.794;9.176;2023-05-12T12:39:18;98033.59;;;19.28;66.38
13767;BME280;47980;48.794;9.176;2023-05-12T12:41:50;98029.34;;;19.48;65.13
13767;BME280;47980;48.794;9.176;2023-05-12T12:44:22;98027.03;;;19.51;64.24
13767;BME280;47980;48.794;9.176;2023-05-12T12:46:54;98019.72;;;19.62;62.72
13767;BME280;47980;48.794;9.176;2023-05-12T12:49:25;98025.84;;;19.02;63.66
13767;BME280;47980;48.794;9.176;2023-05-12T12:51:57;98029.97;;;18.60;62.77
13767;BME280;47980;48.794;9.176;2023-05-12T12:54:30;98022.34;;;18.72;61.94
13767;BME280;47980;48.794;9.176;2023-05-12T12:57:02;98028.13;;;18.74;60.62
13767;BME280;47980;48.794;9.176;2023-05-12T12:59:34;98031.63;;;19.11;64.41
13767;BME280;47980;48.794;9.176;2023-05-12T13:02:05;98020.44;;;18.87;62.67
13767;BME280;47980;48.794;9.176;2023-05-12T13:04:38;98024.69;;;18.88;63.28
13767;BME280;47980;48.794;9.176;2023-05-12T13:07:09;98026.59;;;18.84;63.71
13767;BME280;47980;48.794;9.176;2023-05-12T13:09:42;98024.34;;;19.29;60.84
13767;BME280;47980;48.794;9.176;2023-05-12T13:12:14;98031.50;;;18.61;66.02
13767;BME280;47980;48.794;9.176;2023-05-12T13:14:45;98029.91;;;17.28;70.68
13767;BME280;47980;48.794;9.176;2023-05-12T13:17:17;98029.38;;;17.08;75.29
13767;BME280;47980;48.794;9.176;2023-05-12T13:19:48;98033.28;;;17.14;72.28
13767;BME280;47980;48.794;9.176;2023-05-12T13:22:21;98038.13;;;16.37;78.73